sensor_id;sensor_type;location;lat;lon;timestamp;pressure;altitude;pressure_sealevel;temperature;humidity
70468;BME280;57934;51.532;7.684;2022-09-09T00:01:33;99672.78;;;16.42;nan
70468;BME280;57934;51.532;7.684;2022-09-09T00:09:50;99681.72;;;16.14;nan
70468;BME280;57934;51.532;7.684;2022-09-09T00:15:22;99671.91;;;15.97;nan
70468;BME280;57934;51.532;7.684;2022-09-09T00:20:32;99684.47;;;16.02;nan
70468;BME280;57934;51.532;7.684;2022-09-09T00:23:14;99669.56;;;16.01;nan
70468;BME280;57934;51.532;7.684;2022-09-09T00:28:22;99646.84;;;15.93;nan
70468;BME280;57934;51.532;7.684;2022-09-09T00:30:48;99652.91;;;15.89;nan
70468;BME280;57934;51.532;7.684;2022-09-09T00:33:17;99655.25;;;15.85;nan
70468;BME280;57934;51.532;7.684;2022-09-09T00:35:48;99653.31;;;15.81;nan
70468;BME280;57934;51.532;7.684;2022-09-09T00:38:25;99655.88;;;15.75;nan
70468;BME280;57934;51.532;7.684;2022-09-09T00:41:00;99663.84;;;15.75;nan
70468;BME280;57934;51.532;7.684;2022-09-09T00:43:33;99656.63;;;15.71;nan
70468;BME280;57934;51.532;7.684;2022-09-09T00:51:21;99659.00;;;15.56;nan
70468;BME280;57934;51.532;7.684;2022-09-09T00:57:14;99653.91;;;15.54;nan
70468;BME280;57934;51.532;7.684;2022-09-09T00:59:51;99653.69;;;15.56;nan
70468;BME280;57934;51.532;7.684;2022-09-09T01:02:34;99640.88;;;15.52;nan
70468;BME280;57934;51.532;7.684;2022-09-09T01:05:12;99638.22;;;15.52;nan
70468;BME280;57934;51.532;7.684;2022-09-09T01:07:47;99638.13;;;15.47;nan
70468;BME280;57934;51.532;7.684;2022-09-09T01:10:50;99647.25;;;15.51;nan
70468;BME280;57934;51.532;7.684;2022-09-09T01:13:23;99652.31;;;15.53;nan
70468;BME280;57934;51.532;7.684;2022-09-09T01:15:50;99649.66;;;15.53;nan
70468;BME280;57934;51.532;7.684;2022-09-09T01:18:22;99647.75;;;15.48;nan
70468;BME280;57934;51.532;7.684;2022-09-09T01:23:45;99642.25;;;15.38;nan
70468;BME280;57934;51.532;7.684;2022-09-09T01:26:37;99640.94;;;15.41;nan
70468;BME280;57934;51.532;7.684;2022-09-09T01:29:09;99638.88;;;15.43;nan
70468;BME280;57934;51.532;7.684;2022-09-09T01:31:41;99642.25;;;15.38;nan
70468;BME280;57934;51.532;7.684;2022-09-09T01:34:15;99640.88;;;15.36;nan
70468;BME280;57934;51.532;7.684;2022-09-09T01:36:46;99641.13;;;15.34;nan
70468;BME280;57934;51.532;7.684;2022-09-09T01:39:16;99642.41;;;15.32;nan
70468;BME280;57934;51.532;7.684;2022-09-09T01:41:44;99647.13;;;15.30;nan
70468;BME280;57934;51.532;7.684;2022-09-09T01:44:12;99640.47;;;15.27;nan
70468;BME280;57934;51.532;7.684;2022-09-09T01:46:41;99639.16;;;15.30;nan
70468;BME280;57934;51.532;7.684;2022-09-09T01:49:14;99642.41;;;15.32;nan
70468;BME280;57934;51.532;7.684;2022-09-09T01:51:42;99634.13;;;15.28;nan
70468;BME280;57934;51.532;7.684;2022-09-09T01:54:12;99641.94;;;15.35;nan
70468;BME280;57934;51.532;7.684;2022-09-09T01:57:07;99638.38;;;15.29;nan
70468;BME280;57934;51.532;7.684;2022-09-09T02:08:05;99639.59;;;15.38;nan
70468;BME280;57934;51.532;7.684;2022-09-09T02:10:50;99638.88;;;15.43;nan
70468;BME280;57934;51.532;7.684;2022-09-09T02:13:32;99641.53;;;15.43;nan
70468;BME280;57934;51.532;7.684;2022-09-09T02:16:07;99641.84;;;15.46;nan
70468;BME280;57934;51.532;7.684;2022-09-09T02:18:59;99637.44;;;15.52;nan
70468;BME280;57934;51.532;7.684;2022-09-09T02:21:36;99644.59;;;15.51;nan
70468;BME280;57934;51.532;7.684;2022-09-09T02:24:05;99649.19;;;15.56;nan
70468;BME280;57934;51.532;7.684;2022-09-09T02:26:39;99648.94;;;15.58;nan
70468;BME280;57934;51.532;7.684;2022-09-09T02:29:18;99650.56;;;15.59;nan
70468;BME280;57934;51.532;7.684;2022-09-09T02:31:46;99643.25;;;15.66;nan
70468;BME280;57934;51.532;7.684;2022-09-09T02:34:18;99647.03;;;15.70;nan
70468;BME280;57934;51.532;7.684;2022-09-09T02:36:47;99648.09;;;15.69;nan
70468;BME280;57934;51.532;7.684;2022-09-09T02:39:14;99642.22;;;15.67;nan
70468;BME280;57934;51.532;7.684;2022-09-09T02:41:41;99651.78;;;15.68;nan
70468;BME280;57934;51.532;7.684;2022-09-09T02:44:12;99645.31;;;15.64;nan
70468;BME280;57934;51.532;7.684;2022-09-09T02:51:57;99652.66;;;15.57;nan
70468;BME280;57934;51.532;7.684;2022-09-09T02:54:29;99645.47;;;15.57;nan
70468;BME280;57934;51.532;7.684;2022-09-09T02:57:19;99647.31;;;15.57;nan
70468;BME280;57934;51.532;7.684;2022-09-09T02:59:49;99647.25;;;15.51;nan
70468;BME280;57934;51.532;7.684;2022-09-09T03:02:18;99648.75;;;15.47;nan
70468;BME280;57934;51.532;7.684;2022-09-09T03:04:48;99655.13;;;15.46;nan
70468;BME280;57934;51.532;7.684;2022-09-09T03:07:18;99646.63;;;15.44;nan
70468;BME280;57934;51.532;7.684;2022-09-09T03:09:45;99658.84;;;15.45;nan
70468;BME280;57934;51.532;7.684;2022-09-09T03:12:11;99655.88;;;15.42;nan
70468;BME280;57934;51.532;7.684;2022-09-09T03:14:38;99656.09;;;15.40;nan
70468;BME280;57934;51.532;7.684;2022-09-09T03:17:05;99658.19;;;15.38;nan
70468;BME280;57934;51.532;7.684;2022-09-09T03:19:36;99653.56;;;15.34;nan
70468;BME280;57934;51.532;7.684;2022-09-09T03:22:03;99653.09;;;15.37;nan
70468;BME280;57934;51.532;7.684;2022-09-09T03:24:31;99654.22;;;15.41;nan
70468;BME280;57934;51.532;7.684;2022-09-09T03:26:58;99653.22;;;15.42;nan
70468;BME280;57934;51.532;7.684;2022-09-09T03:29:23;99659.66;;;15.46;nan
70468;BME280;57934;51.532;7.684;2022-09-09T03:31:53;99652.72;;;15.45;nan
70468;BME280;57934;51.532;7.684;2022-09-09T03:34:20;99656.75;;;15.47;nan
70468;BME280;57934;51.532;7.684;2022-09-09T03:36:46;99642.31;;;15.43;nan
70468;BME280;57934;51.532;7.684;2022-09-09T03:39:14;99646.03;;;15.42;nan
70468;BME280;57934;51.532;7.684;2022-09-09T03:41:42;99647.63;;;15.43;nan
70468;BME280;57934;51.532;7.684;2022-09-09T03:44:11;99640.47;;;15.44;nan
70468;BME280;57934;51.532;7.684;2022-09-09T03:46:39;99640.25;;;15.45;nan
70468;BME280;57934;51.532;7.684;2022-09-09T03:49:05;99640.31;;;15.50;nan
70468;BME280;57934;51.532;7.684;2022-09-09T03:51:32;99640.78;;;15.47;nan
70468;BME280;57934;51.532;7.684;2022-09-09T03:54:01;99640.88;;;15.52;nan
70468;BME280;57934;51.532;7.684;2022-09-09T03:56:28;99638.06;;;15.59;nan
70468;BME280;57934;51.532;7.684;2022-09-09T03:58:55;99633.78;;;15.58;nan
70468;BME280;57934;51.532;7.684;2022-09-09T04:01:21;99639.84;;;15.54;nan
70468;BME280;57934;51.532;7.684;2022-09-09T04:03:47;99637.44;;;15.52;nan
70468;BME280;57934;51.532;7.684;2022-09-09T04:06:14;99637.09;;;15.48;nan
70468;BME280;57934;51.532;7.684;2022-09-09T04:08:43;99648.75;;;15.47;nan
70468;BME280;57934;51.532;7.684;2022-09-09T04:11:13;99646.09;;;15.47;nan
70468;BME280;57934;51.532;7.684;2022-09-09T04:13:40;99652.00;;;15.49;nan
70468;BME280;57934;51.532;7.684;2022-09-09T04:16:10;99643.69;;;15.46;nan
70468;BME280;57934;51.532;7.684;2022-09-09T04:18:37;99647.41;;;15.45;nan
70468;BME280;57934;51.532;7.684;2022-09-09T04:21:03;99649.28;;;15.44;nan
70468;BME280;57934;51.532;7.684;2022-09-09T04:23:32;99650.78;;;15.40;nan
70468;BME280;57934;51.532;7.684;2022-09-09T04:26:00;99650.44;;;15.37;nan
70468;BME280;57934;51.532;7.684;2022-09-09T04:28:30;99646.75;;;15.38;nan
70468;BME280;57934;51.532;7.684;2022-09-09T04:30:57;99659.72;;;15.34;nan
70468;BME280;57934;51.532;7.684;2022-09-09T04:33:29;99648.84;;;15.36;nan
70468;BME280;57934;51.532;7.684;2022-09-09T04:35:57;99655.06;;;15.41;nan
70468;BME280;57934;51.532;7.684;2022-09-09T04:38:25;99658.19;;;15.38;nan
70468;BME280;57934;51.532;7.684;2022-09-09T04:40:52;99656.56;;;15.37;nan
70468;BME280;57934;51.532;7.684;2022-09-09T04:43:20;99654.47;;;15.39;nan
70468;BME280;57934;51.532;7.684;2022-09-09T04:45:48;99656.56;;;15.37;nan
70468;BME280;57934;51.532;7.684;2022-09-09T04:48:14;99656.00;;;15.35;nan
70468;BME280;57934;51.532;7.684;2022-09-09T04:50:41;99657.06;;;15.34;nan
70468;BME280;57934;51.532;7.684;2022-09-09T04:53:09;99649.66;;;15.36;nan
70468;BME280;57934;51.532;7.684;2022-09-09T04:55:37;99652.41;;;15.41;nan
70468;BME280;57934;51.532;7.684;2022-09-09T04:58:05;99653.69;;;15.39;nan
70468;BME280;57934;51.532;7.684;2022-09-09T05:00:32;99653.44;;;15.40;nan
70468;BME280;57934;51.532;7.684;2022-09-09T05:03:04;99654.97;;;15.36;nan
70468;BME280;57934;51.532;7.684;2022-09-09T05:05:32;99657.72;;;15.41;nan
70468;BME280;57934;51.532;7.684;2022-09-09T05:08:04;99647.09;;;15.41;nan
70468;BME280;57934;51.532;7.684;2022-09-09T05:10:31;99652.47;;;15.46;nan
70468;BME280;57934;51.532;7.684;2022-09-09T05:12:58;99653.84;;;15.49;nan
70468;BME280;57934;51.532;7.684;2022-09-09T05:15:27;99657.31;;;15.49;nan
70468;BME280;57934;51.532;7.684;2022-09-09T05:17:58;99650.00;;;15.57;nan
70468;BME280;57934;51.532;7.684;2022-09-09T05:20:26;99651.59;;;15.58;nan
70468;BME280;57934;51.532;7.684;2022-09-09T05:22:54;99649.41;;;15.55;nan
70468;BME280;57934;51.532;7.684;2022-09-09T05:25:20;99653.13;;;15.54;nan
70468;BME280;57934;51.532;7.684;2022-09-09T05:27:48;99651.59;;;15.58;nan
70468;BME280;57934;51.532;7.684;2022-09-09T05:30:15;99654.72;;;15.55;nan
70468;BME280;57934;51.532;7.684;2022-09-09T05:32:41;99649.41;;;15.55;nan
70468;BME280;57934;51.532;7.684;2022-09-09T05:35:08;99652.97;;;15.60;nan
70468;BME280;57934;51.532;7.684;2022-09-09T05:37:34;99652.50;;;15.63;nan
70468;BME280;57934;51.532;7.684;2022-09-09T05:40:01;99644.50;;;15.63;nan
70468;BME280;57934;51.532;7.684;2022-09-09T05:42:31;99646.47;;;15.68;nan
70468;BME280;57934;51.532;7.684;2022-09-09T05:44:58;99651.56;;;15.69;nan
70468;BME280;57934;51.532;7.684;2022-09-09T05:47:24;99652.59;;;15.68;nan
70468;BME280;57934;51.532;7.684;2022-09-09T05:49:54;99651.56;;;15.69;nan
70468;BME280;57934;51.532;7.684;2022-09-09T05:52:21;99650.50;;;15.70;nan
70468;BME280;57934;51.532;7.684;2022-09-09T05:54:48;99662.25;;;15.74;nan
70468;BME280;57934;51.532;7.684;2022-09-09T05:57:14;99655.34;;;15.73;nan
70468;BME280;57934;51.532;7.684;2022-09-09T05:59:40;99658.31;;;15.77;nan
70468;BME280;57934;51.532;7.684;2022-09-09T06:02:08;99661.28;;;15.81;nan
70468;BME280;57934;51.532;7.684;2022-09-09T06:04:36;99659.91;;;15.78;nan
70468;BME280;57934;51.532;7.684;2022-09-09T06:07:04;99659.91;;;15.78;nan
70468;BME280;57934;51.532;7.684;2022-09-09T06:09:30;99658.84;;;15.79;nan
70468;BME280;57934;51.532;7.684;2022-09-09T06:11:56;99660.81;;;15.84;nan
70468;BME280;57934;51.532;7.684;2022-09-09T06:14:24;99661.59;;;15.84;nan
70468;BME280;57934;51.532;7.684;2022-09-09T06:16:52;99661.94;;;15.88;nan
70468;BME280;57934;51.532;7.684;2022-09-09T06:19:21;99672.31;;;15.89;nan
70468;BME280;57934;51.532;7.684;2022-09-09T06:21:47;99675.06;;;15.94;nan
70468;BME280;57934;51.532;7.684;2022-09-09T06:24:15;99678.19;;;16.08;nan
70468;BME280;57934;51.532;7.684;2022-09-09T06:26:43;99666.06;;;16.17;nan
70468;BME280;57934;51.532;7.684;2022-09-09T06:29:13;99664.91;;;16.30;nan
70468;BME280;57934;51.532;7.684;2022-09-09T06:31:41;99671.13;;;16.36;nan
70468;BME280;57934;51.532;7.684;2022-09-09T06:34:14;99671.47;;;16.44;nan
70468;BME280;57934;51.532;7.684;2022-09-09T06:36:44;99669.44;;;16.52;nan
70468;BME280;57934;51.532;7.684;2022-09-09T06:39:11;99671.66;;;16.60;nan
70468;BME280;57934;51.532;7.684;2022-09-09T06:41:39;99667.22;;;16.65;nan
70468;BME280;57934;51.532;7.684;2022-09-09T06:44:09;99670.69;;;16.66;nan
70468;BME280;57934;51.532;7.684;2022-09-09T06:46:41;99668.81;;;16.66;nan
70468;BME280;57934;51.532;7.684;2022-09-09T06:49:08;99662.56;;;16.56;nan
70468;BME280;57934;51.532;7.684;2022-09-09T06:51:36;99668.34;;;16.48;nan
70468;BME280;57934;51.532;7.684;2022-09-09T06:54:09;99673.56;;;16.42;nan
70468;BME280;57934;51.532;7.684;2022-09-09T06:56:38;99673.34;;;16.44;nan
70468;BME280;57934;51.532;7.684;2022-09-09T06:59:10;99678.91;;;16.42;nan
70468;BME280;57934;51.532;7.684;2022-09-09T07:01:39;99685.34;;;16.46;nan
70468;BME280;57934;51.532;7.684;2022-09-09T07:04:12;99689.13;;;16.51;nan
70468;BME280;57934;51.532;7.684;2022-09-09T07:06:43;99683.31;;;16.54;nan
70468;BME280;57934;51.532;7.684;2022-09-09T07:09:14;99686.03;;;16.59;nan
70468;BME280;57934;51.532;7.684;2022-09-09T07:11:45;99695.22;;;16.68;nan
70468;BME280;57934;51.532;7.684;2022-09-09T07:14:13;99690.53;;;16.75;nan
70468;BME280;57934;51.532;7.684;2022-09-09T07:16:41;99688.00;;;16.85;nan
70468;BME280;57934;51.532;7.684;2022-09-09T07:19:09;99689.25;;;17.05;nan
70468;BME280;57934;51.532;7.684;2022-09-09T07:21:36;99686.66;;;17.10;nan
70468;BME280;57934;51.532;7.684;2022-09-09T07:24:03;99686.59;;;17.05;nan
70468;BME280;57934;51.532;7.684;2022-09-09T07:26:33;99691.81;;;16.94;nan
70468;BME280;57934;51.532;7.684;2022-09-09T07:29:00;99688.78;;;16.86;nan
70468;BME280;57934;51.532;7.684;2022-09-09T07:31:29;99697.13;;;16.73;nan
70468;BME280;57934;51.532;7.684;2022-09-09T07:33:57;99692.47;;;16.63;nan
70468;BME280;57934;51.532;7.684;2022-09-09T07:36:25;99686.03;;;16.59;nan
70468;BME280;57934;51.532;7.684;2022-09-09T07:38:55;99684.91;;;16.55;nan
70468;BME280;57934;51.532;7.684;2022-09-09T07:41:49;99691.06;;;16.77;nan
70468;BME280;57934;51.532;7.684;2022-09-09T07:44:22;99694.72;;;16.93;nan
70468;BME280;57934;51.532;7.684;2022-09-09T07:47:02;99695.47;;;17.37;nan
70468;BME280;57934;51.532;7.684;2022-09-09T07:49:34;99692.22;;;17.95;nan
70468;BME280;57934;51.532;7.684;2022-09-09T07:52:03;99691.41;;;18.36;nan
70468;BME280;57934;51.532;7.684;2022-09-09T07:54:29;99695.41;;;18.97;nan
70468;BME280;57934;51.532;7.684;2022-09-09T07:56:55;99690.06;;;18.97;nan
70468;BME280;57934;51.532;7.684;2022-09-09T07:59:24;99693.22;;;18.83;nan
70468;BME280;57934;51.532;7.684;2022-09-09T08:01:52;99705.94;;;18.66;nan
70468;BME280;57934;51.532;7.684;2022-09-09T08:04:25;99698.38;;;18.48;nan
70468;BME280;57934;51.532;7.684;2022-09-09T08:06:54;99706.13;;;18.44;nan
70468;BME280;57934;51.532;7.684;2022-09-09T08:09:23;99703.78;;;18.63;nan
70468;BME280;57934;51.532;7.684;2022-09-09T08:12:12;99705.22;;;18.81;nan
70468;BME280;57934;51.532;7.684;2022-09-09T08:14:39;99700.09;;;18.69;nan
70468;BME280;57934;51.532;7.684;2022-09-09T08:17:06;99698.34;;;19.05;nan
70468;BME280;57934;51.532;7.684;2022-09-09T08:19:32;99709.41;;;19.50;nan
70468;BME280;57934;51.532;7.684;2022-09-09T08:22:03;99709.63;;;19.33;nan
70468;BME280;57934;51.532;7.684;2022-09-09T08:24:32;99690.88;;;19.02;nan
70468;BME280;57934;51.532;7.684;2022-09-09T08:26:58;99700.50;;;19.03;nan
70468;BME280;57934;51.532;7.684;2022-09-09T08:29:24;99698.31;;;18.95;nan
70468;BME280;57934;51.532;7.684;2022-09-09T08:31:55;99702.44;;;18.55;nan
70468;BME280;57934;51.532;7.684;2022-09-09T08:34:23;99704.00;;;18.46;nan
70468;BME280;57934;51.532;7.684;2022-09-09T08:36:51;99699.25;;;18.58;nan
70468;BME280;57934;51.532;7.684;2022-09-09T08:39:21;99705.41;;;18.64;nan
70468;BME280;57934;51.532;7.684;2022-09-09T08:53:24;99717.03;;;23.36;nan
70468;BME280;57934;51.532;7.684;2022-09-09T08:55:58;99714.31;;;22.55;nan
70468;BME280;57934;51.532;7.684;2022-09-09T08:58:44;99712.19;;;21.99;nan
70468;BME280;57934;51.532;7.684;2022-09-09T09:04:05;99718.75;;;21.88;nan
70468;BME280;57934;51.532;7.684;2022-09-09T09:06:50;99716.75;;;21.70;nan
70468;BME280;57934;51.532;7.684;2022-09-09T09:09:32;99712.97;;;21.71;nan
70468;BME280;57934;51.532;7.684;2022-09-09T09:12:05;99712.53;;;22.22;nan
70468;BME280;57934;51.532;7.684;2022-09-09T09:14:37;99718.00;;;24.11;nan
70468;BME280;57934;51.532;7.684;2022-09-09T09:17:12;99716.06;;;24.85;nan
70468;BME280;57934;51.532;7.684;2022-09-09T09:19:42;99714.00;;;25.05;nan
70468;BME280;57934;51.532;7.684;2022-09-09T09:24:56;99710.72;;;26.51;nan
70468;BME280;57934;51.532;7.684;2022-09-09T09:27:38;99715.09;;;26.87;nan
70468;BME280;57934;51.532;7.684;2022-09-09T09:30:19;99708.22;;;27.94;nan
70468;BME280;57934;51.532;7.684;2022-09-09T09:32:54;99705.56;;;28.23;nan
70468;BME280;57934;51.532;7.684;2022-09-09T09:35:21;99705.06;;;28.30;nan
70468;BME280;57934;51.532;7.684;2022-09-09T09:37:47;99705.72;;;27.54;nan
70468;BME280;57934;51.532;7.684;2022-09-09T09:40:19;99697.63;;;27.36;nan
70468;BME280;57934;51.532;7.684;2022-09-09T09:45:41;99700.47;;;30.10;nan
70468;BME280;57934;51.532;7.684;2022-09-09T09:48:12;99696.03;;;30.92;nan
70468;BME280;57934;51.532;7.684;2022-09-09T09:50:54;99697.66;;;31.33;nan
70468;BME280;57934;51.532;7.684;2022-09-09T09:53:23;99699.16;;;31.18;nan
70468;BME280;57934;51.532;7.684;2022-09-09T09:55:57;99692.66;;;31.35;nan
70468;BME280;57934;51.532;7.684;2022-09-09T09:58:26;99695.47;;;30.98;nan
70468;BME280;57934;51.532;7.684;2022-09-09T10:00:54;99688.13;;;30.50;nan
70468;BME280;57934;51.532;7.684;2022-09-09T10:03:32;99691.66;;;29.35;nan
70468;BME280;57934;51.532;7.684;2022-09-09T10:06:03;99695.84;;;27.75;nan
70468;BME280;57934;51.532;7.684;2022-09-09T10:08:34;99695.03;;;27.66;nan
70468;BME280;57934;51.532;7.684;2022-09-09T10:11:15;99699.63;;;25.90;nan
70468;BME280;57934;51.532;7.684;2022-09-09T10:19:35;99689.56;;;22.58;nan
70468;BME280;57934;51.532;7.684;2022-09-09T10:22:20;99685.91;;;21.96;nan
70468;BME280;57934;51.532;7.684;2022-09-09T10:28:01;99689.00;;;22.61;nan
70468;BME280;57934;51.532;7.684;2022-09-09T10:33:33;99687.66;;;26.54;nan
70468;BME280;57934;51.532;7.684;2022-09-09T10:36:12;99691.56;;;27.40;nan
70468;BME280;57934;51.532;7.684;2022-09-09T10:38:41;99688.50;;;25.25;nan
70468;BME280;57934;51.532;7.684;2022-09-09T10:44:14;99682.31;;;23.21;nan
70468;BME280;57934;51.532;7.684;2022-09-09T10:55:22;99671.00;;;28.50;nan
70468;BME280;57934;51.532;7.684;2022-09-09T10:57:53;99660.16;;;28.92;nan
70468;BME280;57934;51.532;7.684;2022-09-09T11:03:24;99665.56;;;28.50;nan
70468;BME280;57934;51.532;7.684;2022-09-09T11:06:04;99661.16;;;30.32;nan
70468;BME280;57934;51.532;7.684;2022-09-09T11:08:33;99666.47;;;30.78;nan
70468;BME280;57934;51.532;7.684;2022-09-09T11:11:42;99668.41;;;29.25;nan
70468;BME280;57934;51.532;7.684;2022-09-09T11:14:15;99664.47;;;26.87;nan
70468;BME280;57934;51.532;7.684;2022-09-09T11:16:58;99676.19;;;24.82;nan
70468;BME280;57934;51.532;7.684;2022-09-09T11:19:31;99679.69;;;24.14;nan
70468;BME280;57934;51.532;7.684;2022-09-09T11:22:14;99672.44;;;26.93;nan
70468;BME280;57934;51.532;7.684;2022-09-09T11:24:49;99676.09;;;28.51;nan
70468;BME280;57934;51.532;7.684;2022-09-09T11:29:44;99685.66;;;27.20;nan
70468;BME280;57934;51.532;7.684;2022-09-09T11:32:47;99680.38;;;26.98;nan
70468;BME280;57934;51.532;7.684;2022-09-09T11:35:31;99681.69;;;27.26;nan
70468;BME280;57934;51.532;7.684;2022-09-09T11:38:16;99677.69;;;27.24;nan
70468;BME280;57934;51.532;7.684;2022-09-09T11:40:45;99687.31;;;25.62;nan
70468;BME280;57934;51.532;7.684;2022-09-09T11:43:14;99680.25;;;27.03;nan
70468;BME280;57934;51.532;7.684;2022-09-09T11:45:42;99673.88;;;28.74;nan
70468;BME280;57934;51.532;7.684;2022-09-09T11:53:47;99664.88;;;32.05;nan
70468;BME280;57934;51.532;7.684;2022-09-09T11:56:25;99667.28;;;31.06;nan
70468;BME280;57934;51.532;7.684;2022-09-09T11:59:01;99652.97;;;31.81;nan
70468;BME280;57934;51.532;7.684;2022-09-09T12:01:34;99660.94;;;32.53;nan
70468;BME280;57934;51.532;7.684;2022-09-09T12:04:27;99659.25;;;32.65;nan
70468;BME280;57934;51.532;7.684;2022-09-09T12:09:50;99652.13;;;28.24;nan
70468;BME280;57934;51.532;7.684;2022-09-09T12:12:24;99657.28;;;26.65;nan
70468;BME280;57934;51.532;7.684;2022-09-09T12:17:23;99655.66;;;24.31;nan
70468;BME280;57934;51.532;7.684;2022-09-09T12:20:09;99654.63;;;23.53;nan
70468;BME280;57934;51.532;7.684;2022-09-09T12:28:27;99657.97;;;22.88;nan
70468;BME280;57934;51.532;7.684;2022-09-09T12:31:12;99656.38;;;22.92;nan
70468;BME280;57934;51.532;7.684;2022-09-09T12:33:44;99657.06;;;22.79;nan
70468;BME280;57934;51.532;7.684;2022-09-09T12:36:16;99655.91;;;22.85;nan
70468;BME280;57934;51.532;7.684;2022-09-09T12:38:45;99654.84;;;22.81;nan
70468;BME280;57934;51.532;7.684;2022-09-09T12:41:20;99662.47;;;22.74;nan
70468;BME280;57934;51.532;7.684;2022-09-09T12:43:46;99651.19;;;22.29;nan
70468;BME280;57934;51.532;7.684;2022-09-09T12:46:24;99650.56;;;22.13;nan
70468;BME280;57934;51.532;7.684;2022-09-09T12:48:54;99661.25;;;22.42;nan
70468;BME280;57934;51.532;7.684;2022-09-09T12:51:28;99646.66;;;22.29;nan
70468;BME280;57934;51.532;7.684;2022-09-09T12:53:55;99643.75;;;22.26;nan
70468;BME280;57934;51.532;7.684;2022-09-09T12:56:24;99643.94;;;22.05;nan
70468;BME280;57934;51.532;7.684;2022-09-09T12:58:56;99653.97;;;21.95;nan
70468;BME280;57934;51.532;7.684;2022-09-09T13:03:51;99674.22;;;20.59;nan
70468;BME280;57934;51.532;7.684;2022-09-09T13:06:24;99673.03;;;19.85;nan
70468;BME280;57934;51.532;7.684;2022-09-09T13:08:52;99667.16;;;19.62;nan
70468;BME280;57934;51.532;7.684;2022-09-09T13:11:40;99660.19;;;19.51;nan
70468;BME280;57934;51.532;7.684;2022-09-09T13:14:28;99666.28;;;20.18;nan
70468;BME280;57934;51.532;7.684;2022-09-09T13:16:57;99654.72;;;21.03;nan
70468;BME280;57934;51.532;7.684;2022-09-09T13:19:24;99642.34;;;21.46;nan
70468;BME280;57934;51.532;7.684;2022-09-09T13:21:55;99638.16;;;21.64;nan
70468;BME280;57934;51.532;7.684;2022-09-09T13:26:59;99631.63;;;21.46;nan
70468;BME280;57934;51.532;7.684;2022-09-09T13:29:28;99630.03;;;21.45;nan
70468;BME280;57934;51.532;7.684;2022-09-09T13:32:03;99628.38;;;21.49;nan
70468;BME280;57934;51.532;7.684;2022-09-09T13:34:33;99634.31;;;21.41;nan
70468;BME280;57934;51.532;7.684;2022-09-09T13:37:01;99627.25;;;21.16;nan
70468;BME280;57934;51.532;7.684;2022-09-09T13:39:35;99635.94;;;21.03;nan
70468;BME280;57934;51.532;7.684;2022-09-09T13:42:03;99629.00;;;20.91;nan
70468;BME280;57934;51.532;7.684;2022-09-09T13:44:33;99638.25;;;20.70;nan
70468;BME280;57934;51.532;7.684;2022-09-09T13:47:04;99639.94;;;20.61;nan
70468;BME280;57934;51.532;7.684;2022-09-09T13:49:31;99635.56;;;20.70;nan
70468;BME280;57934;51.532;7.684;2022-09-09T13:52:05;99637.94;;;20.77;nan
70468;BME280;57934;51.532;7.684;2022-09-09T13:54:34;99632.84;;;20.80;nan
70468;BME280;57934;51.532;7.684;2022-09-09T13:57:01;99632.41;;;21.07;nan
70468;BME280;57934;51.532;7.684;2022-09-09T13:59:27;99631.13;;;21.39;nan
70468;BME280;57934;51.532;7.684;2022-09-09T14:01:53;99629.09;;;21.55;nan
70468;BME280;57934;51.532;7.684;2022-09-09T14:04:19;99630.81;;;21.75;nan
70468;BME280;57934;51.532;7.684;2022-09-09T14:06:49;99632.78;;;21.93;nan
70468;BME280;57934;51.532;7.684;2022-09-09T14:09:17;99633.19;;;22.05;nan
70468;BME280;57934;51.532;7.684;2022-09-09T14:11:44;99634.31;;;21.99;nan
70468;BME280;57934;51.532;7.684;2022-09-09T14:14:11;99623.19;;;21.87;nan
70468;BME280;57934;51.532;7.684;2022-09-09T14:16:37;99627.97;;;21.90;nan
70468;BME280;57934;51.532;7.684;2022-09-09T14:19:03;99626.84;;;21.96;nan
70468;BME280;57934;51.532;7.684;2022-09-09T14:21:29;99621.19;;;21.98;nan
70468;BME280;57934;51.532;7.684;2022-09-09T14:23:55;99617.47;;;21.70;nan
70468;BME280;57934;51.532;7.684;2022-09-09T14:26:24;99624.75;;;21.64;nan
70468;BME280;57934;51.532;7.684;2022-09-09T14:28:50;99630.81;;;20.57;nan
70468;BME280;57934;51.532;7.684;2022-09-09T14:31:17;99645.78;;;19.67;nan
70468;BME280;57934;51.532;7.684;2022-09-09T14:33:44;99647.03;;;19.08;nan
70468;BME280;57934;51.532;7.684;2022-09-09T14:36:10;99653.94;;;18.84;nan
70468;BME280;57934;51.532;7.684;2022-09-09T14:38:38;99642.13;;;18.65;nan
70468;BME280;57934;51.532;7.684;2022-09-09T14:41:10;99635.66;;;18.55;nan
70468;BME280;57934;51.532;7.684;2022-09-09T14:43:40;99642.03;;;18.49;nan
70468;BME280;57934;51.532;7.684;2022-09-09T14:46:07;99633.78;;;18.56;nan
70468;BME280;57934;51.532;7.684;2022-09-09T14:48:34;99639.16;;;18.61;nan
70468;BME280;57934;51.532;7.684;2022-09-09T14:51:11;99636.84;;;18.80;nan
70468;BME280;57934;51.532;7.684;2022-09-09T14:53:39;99636.88;;;19.00;nan
70468;BME280;57934;51.532;7.684;2022-09-09T14:56:11;99633.97;;;19.22;nan
70468;BME280;57934;51.532;7.684;2022-09-09T14:58:37;99636.91;;;19.51;nan
70468;BME280;57934;51.532;7.684;2022-09-09T15:01:15;99632.09;;;19.89;nan
70468;BME280;57934;51.532;7.684;2022-09-09T15:03:42;99626.88;;;20.34;nan
70468;BME280;57934;51.532;7.684;2022-09-09T15:06:11;99628.38;;;20.65;nan
70468;BME280;57934;51.532;7.684;2022-09-09T15:08:40;99627.53;;;20.70;nan
70468;BME280;57934;51.532;7.684;2022-09-09T15:11:07;99633.81;;;21.00;nan
70468;BME280;57934;51.532;7.684;2022-09-09T15:13:34;99639.22;;;21.34;nan
70468;BME280;57934;51.532;7.684;2022-09-09T15:16:11;99632.97;;;21.43;nan
70468;BME280;57934;51.532;7.684;2022-09-09T15:18:38;99630.28;;;21.43;nan
70468;BME280;57934;51.532;7.684;2022-09-09T15:21:09;99648.13;;;21.19;nan
70468;BME280;57934;51.532;7.684;2022-09-09T15:23:36;99651.84;;;20.19;nan
70468;BME280;57934;51.532;7.684;2022-09-09T15:26:03;99655.38;;;19.43;nan
70468;BME280;57934;51.532;7.684;2022-09-09T15:28:31;99645.72;;;19.06;nan
70468;BME280;57934;51.532;7.684;2022-09-09T15:30:58;99644.06;;;18.84;nan
70468;BME280;57934;51.532;7.684;2022-09-09T15:33:25;99649.06;;;18.60;nan